createdAt,value
2019-03-19T00:02:24.287Z,100492.14
2019-03-19T00:06:28.513Z,100494.76
2019-03-19T00:10:32.681Z,100493.11
2019-03-19T00:14:36.898Z,100493.45
2019-03-19T00:18:41.148Z,100493.11
2019-03-19T00:22:45.429Z,100495.67
2019-03-19T00:26:50.047Z,100502.60
2019-03-19T00:30:54.599Z,100494.98
2019-03-19T00:34:59.733Z,100493.92
2019-03-19T00:39:05.571Z,100502.53
2019-03-19T00:43:09.787Z,100497.73
2019-03-19T00:47:14.023Z,100501.23
2019-03-19T00:51:18.612Z,100508.08
2019-03-19T00:55:22.828Z,100510.33
2019-03-19T00:59:27.238Z,100514.11
2019-03-19T01:03:31.494Z,100514.45
2019-03-19T01:07:35.706Z,100512.27
2019-03-19T01:11:39.946Z,100508.35
2019-03-19T01:15:44.244Z,100500.78
2019-03-19T01:19:48.467Z,100506.48
2019-03-19T01:23:52.982Z,100499.14
2019-03-19T01:27:57.162Z,100504.56
2019-03-19T01:32:01.384Z,100507.50
2019-03-19T01:36:05.661Z,100494.29
2019-03-19T01:40:09.871Z,100494.06
2019-03-19T01:44:14.091Z,100496.53
2019-03-19T01:48:18.294Z,100496.85
2019-03-19T01:52:22.506Z,100499.72
2019-03-19T01:56:26.714Z,100494.95
2019-03-19T02:00:30.889Z,100503.32
2019-03-19T02:04:35.400Z,100511.21
2019-03-19T02:08:39.616Z,100512.97
2019-03-19T02:12:44.265Z,100512.09
2019-03-19T02:16:48.523Z,100521.68
2019-03-19T02:20:52.700Z,100532.67
2019-03-19T02:24:56.936Z,100536.95
2019-03-19T02:29:01.175Z,100545.84
2019-03-19T02:33:05.393Z,100546.30
2019-03-19T02:37:09.725Z,100554.73
2019-03-19T02:41:13.917Z,100558.22
2019-03-19T02:45:18.133Z,100560.47
2019-03-19T02:49:22.299Z,100560.05
2019-03-19T02:53:29.492Z,100563.96
2019-03-19T02:57:32.809Z,100567.52
2019-03-19T03:01:37.173Z,100570.03
2019-03-19T03:05:41.382Z,100573.27
2019-03-19T03:09:45.743Z,100582.23
2019-03-19T03:13:50.065Z,100588.12
2019-03-19T03:17:54.279Z,100583.84
2019-03-19T03:21:58.646Z,100587.95
2019-03-19T03:26:02.857Z,100590.38
2019-03-19T03:30:08.298Z,100601.19
2019-03-19T03:34:14.793Z,100598.06
2019-03-19T03:38:19.511Z,100602.80
2019-03-19T03:42:23.775Z,100603.89
2019-03-19T03:46:28.201Z,100608.50
2019-03-19T03:50:32.597Z,100609.11
2019-03-19T03:54:36.931Z,100616.05
2019-03-19T03:58:42.027Z,100617.30
2019-03-19T04:02:46.252Z,100625.06
2019-03-19T04:06:50.503Z,100617.59
2019-03-19T04:10:55.698Z,100624.06
2019-03-19T04:14:59.940Z,100616.53
2019-03-19T04:19:04.186Z,100615.16
2019-03-19T04:23:08.403Z,100619.86
2019-03-19T04:27:16.291Z,100621.98
2019-03-19T04:31:18.590Z,100626.38
2019-03-19T04:35:22.834Z,100629.09
2019-03-19T04:39:27.407Z,100638.22
2019-03-19T04:43:31.678Z,100641.68
2019-03-19T04:47:36.424Z,100643.44
2019-03-19T04:51:40.944Z,100646.89
2019-03-19T04:55:45.947Z,100651.50
2019-03-19T04:59:50.169Z,100653.16
2019-03-19T05:03:54.344Z,100657.56
2019-03-19T05:07:58.621Z,100655.64
2019-03-19T05:12:02.820Z,100659.10
2019-03-19T05:16:07.222Z,100667.45
2019-03-19T05:20:11.680Z,100663.14
2019-03-19T05:24:15.895Z,100661.84
2019-03-19T05:28:20.144Z,100660.41
2019-03-19T05:32:24.418Z,100660.28
2019-03-19T05:36:28.899Z,100668.53
2019-03-19T05:40:33.185Z,100667.16
2019-03-19T05:44:37.375Z,100668.88
2019-03-19T05:48:41.655Z,100681.14
2019-03-19T05:52:48.316Z,100684.25
2019-03-19T05:56:51.777Z,100690.83
2019-03-19T06:00:55.944Z,100696.94
2019-03-19T06:05:00.354Z,100707.14
2019-03-19T06:09:06.679Z,100709.81
2019-03-19T06:13:10.914Z,100720.32
2019-03-19T06:17:15.128Z,100714.03
2019-03-19T06:21:19.415Z,100723.52
2019-03-19T06:25:23.594Z,100719.73
2019-03-19T06:29:27.806Z,100732.20
2019-03-19T06:33:32.038Z,100729.59
2019-03-19T06:37:36.261Z,100743.65
2019-03-19T06:41:40.555Z,100753.73
2019-03-19T06:45:44.798Z,100762.58
2019-03-19T06:49:49.371Z,100763.65
2019-03-19T06:53:53.566Z,100770.02
2019-03-19T06:57:57.811Z,100780.09
2019-03-19T07:02:02.388Z,100799.16
2019-03-19T07:06:06.591Z,100788.97
2019-03-19T07:10:11.521Z,100795.04
2019-03-19T07:14:15.718Z,100798.39
2019-03-19T07:18:19.986Z,100810.37
2019-03-19T07:22:24.211Z,100799.75
2019-03-19T07:26:28.774Z,100790.48
2019-03-19T07:30:32.986Z,100790.91
2019-03-19T07:34:37.205Z,100784.38
2019-03-19T07:38:41.425Z,100801.05
2019-03-19T07:42:45.735Z,100798.56
2019-03-19T07:46:49.952Z,100799.81
2019-03-19T07:50:54.170Z,100810.33
2019-03-19T07:54:58.395Z,100816.13
2019-03-19T07:59:02.633Z,100824.83
2019-03-19T08:03:15.690Z,100838.05
2019-03-19T08:07:12.872Z,100839.18
2019-03-19T08:11:17.130Z,100842.80
2019-03-19T08:15:21.310Z,100852.92
2019-03-19T08:19:25.538Z,100850.53
2019-03-19T08:23:30.005Z,100860.02
2019-03-19T08:27:34.216Z,100860.75
2019-03-19T08:31:38.461Z,100859.23
2019-03-19T08:35:42.656Z,100861.21
2019-03-19T08:39:46.842Z,100866.53
2019-03-19T08:43:52.668Z,100863.91
2019-03-19T08:47:56.996Z,100859.36
2019-03-19T08:52:01.265Z,100867.59
2019-03-19T08:56:05.510Z,100861.06
2019-03-19T09:00:12.962Z,100855.69
2019-03-19T09:04:17.140Z,100852.82
2019-03-19T09:08:21.647Z,100863.52
2019-03-19T09:12:25.828Z,100859.33
2019-03-19T09:16:30.043Z,100858.45
2019-03-19T09:20:34.411Z,100859.78
2019-03-19T09:24:38.585Z,100864.94
2019-03-19T09:28:42.829Z,100861.27
2019-03-19T09:32:47.006Z,100865.94
2019-03-19T09:36:57.197Z,100863.67
2019-03-19T09:40:57.488Z,100867.40
2019-03-19T09:45:01.708Z,100867.92
2019-03-19T09:49:05.953Z,100858.21
2019-03-19T09:53:10.167Z,100856.81
2019-03-19T09:57:14.384Z,100862.88
2019-03-19T10:01:18.592Z,100860.15
2019-03-19T10:05:22.834Z,100861.39
2019-03-19T10:09:27.009Z,100864.02
2019-03-19T10:13:31.583Z,100857.55
2019-03-19T10:17:35.764Z,100860.34
2019-03-19T10:21:39.994Z,100857.67
2019-03-19T10:25:44.242Z,100853.34
2019-03-19T10:29:48.476Z,100851.73
2019-03-19T10:33:52.642Z,100847.98
2019-03-19T10:37:56.932Z,100847.64
2019-03-19T10:42:01.462Z,100847.25
2019-03-19T10:46:05.688Z,100848.19
2019-03-19T10:50:13.796Z,100847.99
2019-03-19T10:54:18.032Z,100854.22
2019-03-19T10:58:22.260Z,100857.72
2019-03-19T11:02:26.490Z,100849.51
2019-03-19T11:06:30.707Z,100840.41
2019-03-19T11:10:34.930Z,100846.44
2019-03-19T11:14:39.160Z,100841.48
2019-03-19T11:18:43.390Z,100836.81
2019-03-19T11:22:47.710Z,100841.63
2019-03-19T11:26:52.305Z,100834.67
2019-03-19T11:30:56.634Z,100840.41
2019-03-19T11:35:00.981Z,100843.63
2019-03-19T11:39:08.285Z,100832.53
2019-03-19T11:43:12.591Z,100831.41
2019-03-19T11:47:16.799Z,100835.37
2019-03-19T11:51:21.001Z,100827.19
2019-03-19T11:55:25.265Z,100821.89
2019-03-19T11:59:29.497Z,100824.56
2019-03-19T12:03:33.729Z,100824.65
2019-03-19T12:07:37.989Z,100820.37
2019-03-19T12:11:42.215Z,100804.65
2019-03-19T12:15:46.443Z,100799.21
2019-03-19T12:19:50.677Z,100798.38
2019-03-19T12:23:54.949Z,100798.20
2019-03-19T12:27:59.127Z,100792.63
2019-03-19T12:32:03.326Z,100791.35
2019-03-19T12:36:07.882Z,100786.98
2019-03-19T12:40:13.354Z,100788.25
2019-03-19T12:44:17.623Z,100789.16
2019-03-19T12:48:21.847Z,100798.28
2019-03-19T12:52:26.069Z,100797.09
2019-03-19T12:56:30.293Z,100792.16
2019-03-19T13:00:35.149Z,100795.86
2019-03-19T13:04:39.407Z,100796.30
2019-03-19T13:08:43.939Z,100790.61
2019-03-19T13:12:48.180Z,100780.92
2019-03-19T13:16:52.423Z,100785.74
2019-03-19T13:20:56.663Z,100788.02
2019-03-19T13:25:01.727Z,100786.63
2019-03-19T13:29:05.938Z,100797.73
2019-03-19T13:33:10.315Z,100793.11
2019-03-19T13:37:14.548Z,100801.34
2019-03-19T13:41:18.781Z,100800.83
2019-03-19T13:45:23.618Z,100795.45
2019-03-19T13:49:28.239Z,100803.32
2019-03-19T13:53:32.523Z,100797.50
2019-03-19T13:57:36.749Z,100798.91
2019-03-19T14:01:40.935Z,100799.78
2019-03-19T14:05:45.242Z,100800.13
2019-03-19T14:09:49.902Z,100794.88
2019-03-19T14:13:55.795Z,100792.02
2019-03-19T14:18:00.173Z,100790.83
2019-03-19T14:22:04.403Z,100796.56
2019-03-19T14:26:08.603Z,100786.02
2019-03-19T14:30:15.186Z,100785.58
2019-03-19T14:34:19.392Z,100787.45
2019-03-19T14:38:23.615Z,100793.81
2019-03-19T14:42:27.916Z,100794.65
2019-03-19T14:46:32.208Z,100798.42
2019-03-19T14:50:36.502Z,100801.00
2019-03-19T14:54:40.822Z,100807.18
2019-03-19T14:58:45.462Z,100807.14
2019-03-19T15:02:49.767Z,100809.55
2019-03-19T15:06:53.987Z,100824.17
2019-03-19T15:10:58.235Z,100824.60
2019-03-19T15:15:02.443Z,100825.27
2019-03-19T15:19:06.780Z,100826.62
2019-03-19T15:23:11.159Z,100832.74
2019-03-19T15:27:15.402Z,100842.28
2019-03-19T15:31:29.386Z,100839.56
2019-03-19T15:35:26.163Z,100842.19
2019-03-19T15:39:30.448Z,100854.89
2019-03-19T15:43:34.765Z,100850.90
2019-03-19T15:47:39.136Z,100859.12
2019-03-19T15:51:43.406Z,100863.50
2019-03-19T15:55:47.878Z,100861.80
2019-03-19T15:59:52.065Z,100864.42
2019-03-19T16:03:56.332Z,100869.23
2019-03-19T16:08:01.968Z,100880.17
2019-03-19T16:12:06.362Z,100879.59
2019-03-19T16:16:10.643Z,100888.64
2019-03-19T16:20:15.221Z,100899.09
2019-03-19T16:24:19.531Z,100896.86
2019-03-19T16:28:23.986Z,100905.21
2019-03-19T16:32:28.401Z,100907.70
2019-03-19T16:36:33.749Z,100914.73
2019-03-19T16:40:37.975Z,100920.05
2019-03-19T16:44:42.224Z,100925.02
2019-03-19T16:48:46.441Z,100932.94
2019-03-19T16:52:50.849Z,100938.23
2019-03-19T16:56:55.071Z,100949.27
2019-03-19T17:00:59.285Z,100958.08
2019-03-19T17:05:04.160Z,100958.36
2019-03-19T17:09:08.852Z,100967.20
2019-03-19T17:13:13.208Z,100980.03
2019-03-19T17:17:17.992Z,100988.22
2019-03-19T17:21:23.090Z,100989.32
2019-03-19T17:25:28.108Z,100992.73
2019-03-19T17:29:32.439Z,100994.84
2019-03-19T17:33:36.720Z,101007.87
2019-03-19T17:37:40.950Z,101011.80
2019-03-19T17:41:45.250Z,101014.96
2019-03-19T17:45:49.525Z,101022.95
2019-03-19T17:49:54.001Z,101030.66
2019-03-19T17:53:58.221Z,101039.47
2019-03-19T17:58:03.925Z,101036.84
2019-03-19T18:02:08.156Z,101047.83
2019-03-19T18:06:12.498Z,101045.09
2019-03-19T18:10:16.880Z,101050.67
2019-03-19T18:14:21.235Z,101049.12
2019-03-19T18:18:25.998Z,101061.34
2019-03-19T18:22:30.334Z,101063.56
2019-03-19T18:26:35.669Z,101072.75
2019-03-19T18:30:42.277Z,101082.01
2019-03-19T18:34:46.652Z,101087.91
2019-03-19T18:38:50.902Z,101103.97
2019-03-19T18:42:55.129Z,101102.55
2019-03-19T18:47:00.637Z,101104.72
2019-03-19T18:51:05.662Z,101107.45
2019-03-19T18:55:59.282Z,101110.36
2019-03-19T19:00:05.413Z,101113.62
2019-03-19T19:04:10.641Z,101112.27
2019-03-19T19:08:15.372Z,101116.06
2019-03-19T19:12:19.663Z,101129.55
2019-03-19T19:16:24.044Z,101132.55
2019-03-19T19:20:28.692Z,101130.23
2019-03-19T19:24:32.934Z,101132.31
2019-03-19T19:28:37.480Z,101139.23
2019-03-19T19:32:41.886Z,101142.37
2019-03-19T19:36:47.486Z,101146.28
2019-03-19T19:40:51.670Z,101142.79
2019-03-19T19:44:55.983Z,101140.20
2019-03-19T19:49:00.345Z,101146.88
2019-03-19T19:53:05.356Z,101152.48
2019-03-19T19:57:09.850Z,101166.47
2019-03-19T20:01:14.135Z,101167.19
2019-03-19T20:05:18.898Z,101161.41
2019-03-19T20:09:24.076Z,101164.52
2019-03-19T20:13:28.465Z,101171.22
2019-03-19T20:17:32.690Z,101171.41
2019-03-19T20:21:36.875Z,101169.61
2019-03-19T20:25:41.217Z,101174.38
2019-03-19T20:29:45.473Z,101173.60
2019-03-19T20:33:49.743Z,101181.30
2019-03-19T20:37:54.020Z,101188.14
2019-03-19T20:41:59.976Z,101188.54
2019-03-19T20:46:04.904Z,101194.86
2019-03-19T20:50:13.548Z,101201.27
2019-03-19T20:54:17.805Z,101198.46
2019-03-19T20:58:23.415Z,101205.56
2019-03-19T21:02:27.699Z,101212.56
2019-03-19T21:06:31.956Z,101221.63
2019-03-19T21:10:37.858Z,101209.30
2019-03-19T21:14:42.108Z,101219.23
2019-03-19T21:18:46.496Z,101222.97
2019-03-19T21:22:50.735Z,101228.70
2019-03-19T21:26:57.957Z,101226.02
2019-03-19T21:31:02.180Z,101224.14
2019-03-19T21:35:06.494Z,101230.52
2019-03-19T21:39:11.139Z,101232.38
2019-03-19T21:43:15.424Z,101230.83
2019-03-19T21:47:19.642Z,101242.19
2019-03-19T21:51:23.935Z,101240.14
2019-03-19T21:55:28.175Z,101244.70
2019-03-19T21:59:32.731Z,101241.84
2019-03-19T22:03:36.945Z,101247.96
2019-03-19T22:07:41.230Z,101252.70
2019-03-19T22:11:45.453Z,101260.36
2019-03-19T22:15:49.751Z,101262.55
2019-03-19T22:19:54.318Z,101259.32
2019-03-19T22:23:58.503Z,101264.75
2019-03-19T22:28:02.719Z,101266.61
2019-03-19T22:32:06.948Z,101267.31
2019-03-19T22:36:11.990Z,101273.15
2019-03-19T22:40:16.357Z,101265.10
2019-03-19T22:44:20.920Z,101270.94
2019-03-19T22:48:25.164Z,101274.94
2019-03-19T22:52:29.524Z,101274.82
2019-03-19T22:56:33.748Z,101277.91
2019-03-19T23:00:49.140Z,101283.80
2019-03-19T23:04:53.352Z,101285.53
2019-03-19T23:08:57.882Z,101293.30
2019-03-19T23:13:02.125Z,101288.77
2019-03-19T23:17:06.615Z,101295.62
2019-03-19T23:21:10.822Z,101301.00
2019-03-19T23:25:15.202Z,101308.80
2019-03-19T23:29:19.488Z,101317.95
2019-03-19T23:33:23.697Z,101322.59
2019-03-19T23:37:27.859Z,101324.58
2019-03-19T23:41:32.096Z,101332.09
2019-03-19T23:45:36.273Z,101333.59
2019-03-19T23:49:40.485Z,101342.44
2019-03-19T23:53:45.047Z,101348.89
2019-03-19T23:57:49.250Z,101348.91
